sensor_id;sensor_type;location;lat;lon;timestamp;P1;durP1;ratioP1;P2;durP2;ratioP2
7693;SDS011;3889;48.162;11.510;2022-08-19T00:01:49;5.25;;;4.85;;
7693;SDS011;3889;48.162;11.510;2022-08-19T00:04:20;5.22;;;4.82;;
7693;SDS011;3889;48.162;11.510;2022-08-19T00:06:49;5.90;;;5.40;;
7693;SDS011;3889;48.162;11.510;2022-08-19T00:09:18;6.13;;;5.63;;
7693;SDS011;3889;48.162;11.510;2022-08-19T00:11:48;6.47;;;5.97;;
7693;SDS011;3889;48.162;11.510;2022-08-19T00:14:17;7.70;;;6.90;;
7693;SDS011;3889;48.162;11.510;2022-08-19T00:16:47;7.13;;;6.53;;
7693;SDS011;3889;48.162;11.510;2022-08-19T00:19:20;7.15;;;6.50;;
7693;SDS011;3889;48.162;11.510;2022-08-19T00:21:49;7.70;;;7.00;;
7693;SDS011;3889;48.162;11.510;2022-08-19T00:24:17;8.85;;;8.05;;
7693;SDS011;3889;48.162;11.510;2022-08-19T00:26:46;8.45;;;7.75;;
7693;SDS011;3889;48.162;11.510;2022-08-19T00:29:15;8.32;;;7.50;;
7693;SDS011;3889;48.162;11.510;2022-08-19T00:31:45;8.30;;;7.60;;
7693;SDS011;3889;48.162;11.510;2022-08-19T00:34:17;9.13;;;8.40;;
7693;SDS011;3889;48.162;11.510;2022-08-19T00:36:45;9.02;;;8.23;;
7693;SDS011;3889;48.162;11.510;2022-08-19T00:39:13;9.57;;;8.57;;
7693;SDS011;3889;48.162;11.510;2022-08-19T00:41:43;9.17;;;8.37;;
7693;SDS011;3889;48.162;11.510;2022-08-19T00:44:15;9.45;;;8.55;;
7693;SDS011;3889;48.162;11.510;2022-08-19T00:46:48;9.40;;;8.60;;
7693;SDS011;3889;48.162;11.510;2022-08-19T00:49:25;10.20;;;9.30;;
7693;SDS011;3889;48.162;11.510;2022-08-19T00:51:59;10.13;;;9.13;;
7693;SDS011;3889;48.162;11.510;2022-08-19T00:54:30;10.45;;;9.45;;
7693;SDS011;3889;48.162;11.510;2022-08-19T00:56:59;9.70;;;8.80;;
7693;SDS011;3889;48.162;11.510;2022-08-19T00:59:29;9.82;;;9.02;;
7693;SDS011;3889;48.162;11.510;2022-08-19T01:02:17;10.60;;;9.52;;
7693;SDS011;3889;48.162;11.510;2022-08-19T01:04:47;10.40;;;9.50;;
7693;SDS011;3889;48.162;11.510;2022-08-19T01:07:15;10.50;;;9.60;;
7693;SDS011;3889;48.162;11.510;2022-08-19T01:09:45;11.00;;;10.00;;
7693;SDS011;3889;48.162;11.510;2022-08-19T01:12:13;11.75;;;10.60;;
7693;SDS011;3889;48.162;11.510;2022-08-19T01:14:43;11.77;;;10.67;;
7693;SDS011;3889;48.162;11.510;2022-08-19T01:17:12;13.60;;;12.40;;
7693;SDS011;3889;48.162;11.510;2022-08-19T01:19:42;12.48;;;11.38;;
7693;SDS011;3889;48.162;11.510;2022-08-19T01:22:14;13.35;;;12.00;;
7693;SDS011;3889;48.162;11.510;2022-08-19T01:24:58;13.27;;;11.98;;
7693;SDS011;3889;48.162;11.510;2022-08-19T01:27:26;13.77;;;12.48;;
7693;SDS011;3889;48.162;11.510;2022-08-19T01:30:09;14.75;;;13.38;;
7693;SDS011;3889;48.162;11.510;2022-08-19T01:32:39;13.98;;;12.68;;
7693;SDS011;3889;48.162;11.510;2022-08-19T01:35:07;13.98;;;12.60;;
7693;SDS011;3889;48.162;11.510;2022-08-19T01:37:41;15.18;;;13.70;;
7693;SDS011;3889;48.162;11.510;2022-08-19T01:40:11;14.52;;;13.20;;
7693;SDS011;3889;48.162;11.510;2022-08-19T01:42:40;14.35;;;13.05;;
7693;SDS011;3889;48.162;11.510;2022-08-19T01:45:08;14.85;;;13.45;;
7693;SDS011;3889;48.162;11.510;2022-08-19T01:47:37;14.88;;;13.45;;
7693;SDS011;3889;48.162;11.510;2022-08-19T01:50:06;14.90;;;13.40;;
7693;SDS011;3889;48.162;11.510;2022-08-19T01:52:37;14.32;;;12.82;;
7693;SDS011;3889;48.162;11.510;2022-08-19T01:55:07;14.73;;;13.23;;
7693;SDS011;3889;48.162;11.510;2022-08-19T01:57:39;25.30;;;13.18;;
7693;SDS011;3889;48.162;11.510;2022-08-19T02:00:12;14.35;;;13.05;;
7693;SDS011;3889;48.162;11.510;2022-08-19T02:02:42;13.95;;;12.30;;
7693;SDS011;3889;48.162;11.510;2022-08-19T02:05:10;13.35;;;12.15;;
7693;SDS011;3889;48.162;11.510;2022-08-19T02:07:39;13.95;;;12.55;;
7693;SDS011;3889;48.162;11.510;2022-08-19T02:10:09;13.57;;;12.27;;
7693;SDS011;3889;48.162;11.510;2022-08-19T02:12:43;34.53;;;32.22;;
7693;SDS011;3889;48.162;11.510;2022-08-19T02:15:13;12.30;;;11.20;;
7693;SDS011;3889;48.162;11.510;2022-08-19T02:17:41;19.93;;;12.47;;
7693;SDS011;3889;48.162;11.510;2022-08-19T02:20:10;12.13;;;10.95;;
7693;SDS011;3889;48.162;11.510;2022-08-19T02:22:39;11.95;;;10.82;;
7693;SDS011;3889;48.162;11.510;2022-08-19T02:25:08;11.25;;;10.15;;
7693;SDS011;3889;48.162;11.510;2022-08-19T02:27:36;11.10;;;10.20;;
7693;SDS011;3889;48.162;11.510;2022-08-19T02:30:08;10.57;;;9.60;;
7693;SDS011;3889;48.162;11.510;2022-08-19T02:32:39;10.73;;;9.80;;
7693;SDS011;3889;48.162;11.510;2022-08-19T02:35:10;10.32;;;9.43;;
7693;SDS011;3889;48.162;11.510;2022-08-19T02:37:39;10.25;;;9.45;;
7693;SDS011;3889;48.162;11.510;2022-08-19T02:40:25;9.98;;;9.07;;
7693;SDS011;3889;48.162;11.510;2022-08-19T02:42:53;9.10;;;8.30;;
7693;SDS011;3889;48.162;11.510;2022-08-19T02:45:23;9.90;;;8.90;;
7693;SDS011;3889;48.162;11.510;2022-08-19T02:47:51;9.02;;;8.27;;
7693;SDS011;3889;48.162;11.510;2022-08-19T02:50:19;9.68;;;8.77;;
7693;SDS011;3889;48.162;11.510;2022-08-19T02:52:47;9.05;;;8.25;;
7693;SDS011;3889;48.162;11.510;2022-08-19T02:55:15;8.77;;;8.07;;
7693;SDS011;3889;48.162;11.510;2022-08-19T02:57:43;9.10;;;8.30;;
7693;SDS011;3889;48.162;11.510;2022-08-19T03:00:11;8.63;;;7.82;;
7693;SDS011;3889;48.162;11.510;2022-08-19T03:02:41;8.98;;;8.07;;
7693;SDS011;3889;48.162;11.510;2022-08-19T03:05:09;9.20;;;8.40;;
7693;SDS011;3889;48.162;11.510;2022-08-19T03:07:37;8.45;;;7.70;;
7693;SDS011;3889;48.162;11.510;2022-08-19T03:10:05;8.37;;;7.67;;
7693;SDS011;3889;48.162;11.510;2022-08-19T03:12:35;9.20;;;8.40;;
7693;SDS011;3889;48.162;11.510;2022-08-19T03:15:05;9.57;;;8.68;;
7693;SDS011;3889;48.162;11.510;2022-08-19T03:17:35;8.63;;;7.82;;
7693;SDS011;3889;48.162;11.510;2022-08-19T03:20:04;8.82;;;8.10;;
7693;SDS011;3889;48.162;11.510;2022-08-19T03:22:33;9.02;;;8.13;;
7693;SDS011;3889;48.162;11.510;2022-08-19T03:25:01;9.25;;;8.35;;
7693;SDS011;3889;48.162;11.510;2022-08-19T03:27:29;9.43;;;8.63;;
7693;SDS011;3889;48.162;11.510;2022-08-19T03:30:00;8.88;;;8.10;;
7693;SDS011;3889;48.162;11.510;2022-08-19T03:32:28;9.75;;;8.85;;
7693;SDS011;3889;48.162;11.510;2022-08-19T03:34:58;8.93;;;8.13;;
7693;SDS011;3889;48.162;11.510;2022-08-19T03:37:27;9.52;;;8.73;;
7693;SDS011;3889;48.162;11.510;2022-08-19T03:39:55;9.27;;;8.47;;
7693;SDS011;3889;48.162;11.510;2022-08-19T03:42:23;10.20;;;9.20;;
7693;SDS011;3889;48.162;11.510;2022-08-19T03:45:13;9.00;;;8.10;;
7693;SDS011;3889;48.162;11.510;2022-08-19T03:47:40;9.20;;;8.40;;
7693;SDS011;3889;48.162;11.510;2022-08-19T03:50:08;10.10;;;9.20;;
7693;SDS011;3889;48.162;11.510;2022-08-19T03:52:38;9.50;;;8.60;;
7693;SDS011;3889;48.162;11.510;2022-08-19T03:55:12;9.70;;;8.80;;
7693;SDS011;3889;48.162;11.510;2022-08-19T03:57:40;9.15;;;8.35;;
7693;SDS011;3889;48.162;11.510;2022-08-19T04:00:08;10.07;;;9.17;;
7693;SDS011;3889;48.162;11.510;2022-08-19T04:02:39;10.00;;;9.02;;
7693;SDS011;3889;48.162;11.510;2022-08-19T04:05:08;8.93;;;8.13;;
7693;SDS011;3889;48.162;11.510;2022-08-19T04:07:36;9.73;;;8.83;;
7693;SDS011;3889;48.162;11.510;2022-08-19T04:10:05;10.70;;;9.65;;
7693;SDS011;3889;48.162;11.510;2022-08-19T04:12:35;11.40;;;10.30;;
7693;SDS011;3889;48.162;11.510;2022-08-19T04:15:04;10.40;;;9.40;;
7693;SDS011;3889;48.162;11.510;2022-08-19T04:17:32;10.65;;;9.65;;
7693;SDS011;3889;48.162;11.510;2022-08-19T04:20:00;10.45;;;9.45;;
7693;SDS011;3889;48.162;11.510;2022-08-19T04:22:32;10.60;;;9.50;;
7693;SDS011;3889;48.162;11.510;2022-08-19T04:25:00;10.15;;;9.15;;
7693;SDS011;3889;48.162;11.510;2022-08-19T04:27:29;10.13;;;9.13;;
7693;SDS011;3889;48.162;11.510;2022-08-19T04:29:57;10.27;;;9.27;;
7693;SDS011;3889;48.162;11.510;2022-08-19T04:32:25;10.82;;;9.82;;
7693;SDS011;3889;48.162;11.510;2022-08-19T04:34:53;12.50;;;11.30;;
7693;SDS011;3889;48.162;11.510;2022-08-19T04:37:42;12.87;;;11.53;;
7693;SDS011;3889;48.162;11.510;2022-08-19T04:40:10;11.63;;;10.52;;
7693;SDS011;3889;48.162;11.510;2022-08-19T04:42:57;12.20;;;11.07;;
7693;SDS011;3889;48.162;11.510;2022-08-19T04:45:27;11.93;;;10.77;;
7693;SDS011;3889;48.162;11.510;2022-08-19T04:48:04;11.73;;;10.70;;
7693;SDS011;3889;48.162;11.510;2022-08-19T04:50:53;12.57;;;11.30;;
7693;SDS011;3889;48.162;11.510;2022-08-19T04:53:23;12.10;;;10.90;;
7693;SDS011;3889;48.162;11.510;2022-08-19T04:55:54;12.83;;;11.63;;
7693;SDS011;3889;48.162;11.510;2022-08-19T04:58:25;12.68;;;11.48;;
7693;SDS011;3889;48.162;11.510;2022-08-19T05:00:54;12.50;;;11.20;;
7693;SDS011;3889;48.162;11.510;2022-08-19T05:03:22;12.82;;;11.55;;
7693;SDS011;3889;48.162;11.510;2022-08-19T05:05:55;12.67;;;11.47;;
7693;SDS011;3889;48.162;11.510;2022-08-19T05:08:24;11.63;;;10.52;;
7693;SDS011;3889;48.162;11.510;2022-08-19T05:10:56;11.85;;;10.75;;
7693;SDS011;3889;48.162;11.510;2022-08-19T05:13:26;11.40;;;10.30;;
7693;SDS011;3889;48.162;11.510;2022-08-19T05:15:54;11.90;;;10.70;;
7693;SDS011;3889;48.162;11.510;2022-08-19T05:18:24;11.30;;;10.13;;
7693;SDS011;3889;48.162;11.510;2022-08-19T05:21:11;11.95;;;10.85;;
7693;SDS011;3889;48.162;11.510;2022-08-19T05:23:58;11.50;;;10.40;;
7693;SDS011;3889;48.162;11.510;2022-08-19T05:26:26;12.18;;;10.98;;
7693;SDS011;3889;48.162;11.510;2022-08-19T05:28:55;10.68;;;9.68;;
7693;SDS011;3889;48.162;11.510;2022-08-19T05:31:23;10.93;;;9.93;;
7693;SDS011;3889;48.162;11.510;2022-08-19T05:33:51;10.77;;;9.77;;
7693;SDS011;3889;48.162;11.510;2022-08-19T05:36:19;11.23;;;10.13;;
7693;SDS011;3889;48.162;11.510;2022-08-19T05:38:47;11.15;;;10.05;;
7693;SDS011;3889;48.162;11.510;2022-08-19T05:41:16;12.80;;;11.50;;
7693;SDS011;3889;48.162;11.510;2022-08-19T05:43:44;11.70;;;10.60;;
7693;SDS011;3889;48.162;11.510;2022-08-19T05:46:17;11.63;;;10.52;;
7693;SDS011;3889;48.162;11.510;2022-08-19T05:48:53;11.73;;;10.65;;
7693;SDS011;3889;48.162;11.510;2022-08-19T05:51:22;12.40;;;11.30;;
7693;SDS011;3889;48.162;11.510;2022-08-19T05:53:54;11.77;;;10.68;;
7693;SDS011;3889;48.162;11.510;2022-08-19T05:56:22;13.23;;;12.02;;
7693;SDS011;3889;48.162;11.510;2022-08-19T05:58:50;12.82;;;11.63;;
7693;SDS011;3889;48.162;11.510;2022-08-19T06:01:21;12.83;;;11.60;;
7693;SDS011;3889;48.162;11.510;2022-08-19T06:03:49;12.27;;;11.07;;
7693;SDS011;3889;48.162;11.510;2022-08-19T06:06:17;11.73;;;10.60;;
7693;SDS011;3889;48.162;11.510;2022-08-19T06:08:45;12.65;;;11.32;;
7693;SDS011;3889;48.162;11.510;2022-08-19T06:11:17;13.40;;;12.20;;
7693;SDS011;3889;48.162;11.510;2022-08-19T06:13:48;13.82;;;12.52;;
7693;SDS011;3889;48.162;11.510;2022-08-19T06:16:27;12.60;;;11.38;;
7693;SDS011;3889;48.162;11.510;2022-08-19T06:18:59;15.15;;;13.60;;
7693;SDS011;3889;48.162;11.510;2022-08-19T06:21:28;13.18;;;11.98;;
7693;SDS011;3889;48.162;11.510;2022-08-19T06:23:57;14.10;;;12.60;;
7693;SDS011;3889;48.162;11.510;2022-08-19T06:26:26;14.97;;;13.50;;
7693;SDS011;3889;48.162;11.510;2022-08-19T06:28:54;13.30;;;12.10;;
7693;SDS011;3889;48.162;11.510;2022-08-19T06:31:24;14.35;;;12.95;;
7693;SDS011;3889;48.162;11.510;2022-08-19T06:33:54;14.48;;;13.15;;
7693;SDS011;3889;48.162;11.510;2022-08-19T06:36:22;14.40;;;13.10;;
7693;SDS011;3889;48.162;11.510;2022-08-19T06:38:56;14.25;;;12.85;;
7693;SDS011;3889;48.162;11.510;2022-08-19T06:41:24;14.38;;;12.95;;
7693;SDS011;3889;48.162;11.510;2022-08-19T06:43:53;13.82;;;12.48;;
7693;SDS011;3889;48.162;11.510;2022-08-19T06:46:22;17.98;;;16.17;;
7693;SDS011;3889;48.162;11.510;2022-08-19T06:48:50;18.00;;;16.35;;
7693;SDS011;3889;48.162;11.510;2022-08-19T06:51:21;16.88;;;15.27;;
7693;SDS011;3889;48.162;11.510;2022-08-19T06:53:51;16.70;;;15.07;;
7693;SDS011;3889;48.162;11.510;2022-08-19T06:56:21;17.30;;;15.70;;
7693;SDS011;3889;48.162;11.510;2022-08-19T06:58:56;17.13;;;15.40;;
7693;SDS011;3889;48.162;11.510;2022-08-19T07:01:24;16.93;;;15.23;;
7693;SDS011;3889;48.162;11.510;2022-08-19T07:03:52;17.50;;;15.80;;
7693;SDS011;3889;48.162;11.510;2022-08-19T07:06:21;17.00;;;15.40;;
7693;SDS011;3889;48.162;11.510;2022-08-19T07:09:10;18.58;;;16.80;;
7693;SDS011;3889;48.162;11.510;2022-08-19T07:11:43;20.23;;;18.23;;
7693;SDS011;3889;48.162;11.510;2022-08-19T07:14:13;20.83;;;18.90;;
7693;SDS011;3889;48.162;11.510;2022-08-19T07:16:45;22.38;;;20.27;;
7693;SDS011;3889;48.162;11.510;2022-08-19T07:19:13;23.25;;;21.13;;
7693;SDS011;3889;48.162;11.510;2022-08-19T07:21:45;25.20;;;22.80;;
7693;SDS011;3889;48.162;11.510;2022-08-19T07:24:16;23.30;;;21.10;;
7693;SDS011;3889;48.162;11.510;2022-08-19T07:26:44;23.00;;;20.80;;
7693;SDS011;3889;48.162;11.510;2022-08-19T07:29:17;27.30;;;24.70;;
7693;SDS011;3889;48.162;11.510;2022-08-19T07:31:54;26.73;;;24.13;;
7693;SDS011;3889;48.162;11.510;2022-08-19T07:34:26;27.83;;;25.02;;
7693;SDS011;3889;48.162;11.510;2022-08-19T07:36:57;29.08;;;26.27;;
7693;SDS011;3889;48.162;11.510;2022-08-19T07:39:26;28.40;;;25.67;;
7693;SDS011;3889;48.162;11.510;2022-08-19T07:41:55;28.83;;;25.97;;
7693;SDS011;3889;48.162;11.510;2022-08-19T07:44:24;28.53;;;25.63;;
7693;SDS011;3889;48.162;11.510;2022-08-19T07:46:53;29.73;;;26.55;;
7693;SDS011;3889;48.162;11.510;2022-08-19T07:49:23;29.52;;;26.65;;
7693;SDS011;3889;48.162;11.510;2022-08-19T07:51:52;28.98;;;26.15;;
7693;SDS011;3889;48.162;11.510;2022-08-19T07:54:22;29.17;;;26.37;;
7693;SDS011;3889;48.162;11.510;2022-08-19T07:56:52;28.48;;;25.75;;
7693;SDS011;3889;48.162;11.510;2022-08-19T07:59:20;29.83;;;26.85;;
7693;SDS011;3889;48.162;11.510;2022-08-19T08:01:49;30.10;;;27.00;;
7693;SDS011;3889;48.162;11.510;2022-08-19T08:04:18;29.55;;;26.73;;
7693;SDS011;3889;48.162;11.510;2022-08-19T08:07:04;29.70;;;26.70;;
7693;SDS011;3889;48.162;11.510;2022-08-19T08:09:58;31.02;;;27.77;;
7693;SDS011;3889;48.162;11.510;2022-08-19T08:12:30;30.25;;;27.30;;
7693;SDS011;3889;48.162;11.510;2022-08-19T08:15:02;32.03;;;28.75;;
7693;SDS011;3889;48.162;11.510;2022-08-19T08:17:37;32.88;;;29.58;;
7693;SDS011;3889;48.162;11.510;2022-08-19T08:20:17;33.33;;;29.85;;
7693;SDS011;3889;48.162;11.510;2022-08-19T08:22:47;32.50;;;29.20;;
7693;SDS011;3889;48.162;11.510;2022-08-19T08:25:34;34.30;;;30.73;;
7693;SDS011;3889;48.162;11.510;2022-08-19T08:28:03;33.58;;;30.17;;
7693;SDS011;3889;48.162;11.510;2022-08-19T08:30:31;33.17;;;29.75;;
7693;SDS011;3889;48.162;11.510;2022-08-19T08:33:02;35.92;;;32.10;;
7693;SDS011;3889;48.162;11.510;2022-08-19T08:35:30;35.27;;;31.67;;
7693;SDS011;3889;48.162;11.510;2022-08-19T08:37:58;35.30;;;31.67;;
7693;SDS011;3889;48.162;11.510;2022-08-19T08:40:27;35.60;;;31.95;;
7693;SDS011;3889;48.162;11.510;2022-08-19T08:43:00;35.63;;;31.87;;
7693;SDS011;3889;48.162;11.510;2022-08-19T08:45:38;36.70;;;32.85;;
7693;SDS011;3889;48.162;11.510;2022-08-19T08:48:20;35.85;;;32.13;;
7693;SDS011;3889;48.162;11.510;2022-08-19T08:50:51;35.92;;;32.28;;
7693;SDS011;3889;48.162;11.510;2022-08-19T08:53:23;36.17;;;32.45;;
7693;SDS011;3889;48.162;11.510;2022-08-19T08:55:58;34.85;;;31.15;;
7693;SDS011;3889;48.162;11.510;2022-08-19T08:58:36;36.40;;;32.53;;
7693;SDS011;3889;48.162;11.510;2022-08-19T09:01:19;34.83;;;31.23;;
7693;SDS011;3889;48.162;11.510;2022-08-19T09:03:48;36.55;;;32.65;;
7693;SDS011;3889;48.162;11.510;2022-08-19T09:06:18;37.40;;;33.42;;
7693;SDS011;3889;48.162;11.510;2022-08-19T09:09:00;40.90;;;35.63;;
7693;SDS011;3889;48.162;11.510;2022-08-19T09:11:41;38.25;;;34.03;;
7693;SDS011;3889;48.162;11.510;2022-08-19T09:14:21;37.85;;;33.83;;
7693;SDS011;3889;48.162;11.510;2022-08-19T09:17:15;40.00;;;35.65;;
7693;SDS011;3889;48.162;11.510;2022-08-19T09:19:49;40.80;;;36.20;;
7693;SDS011;3889;48.162;11.510;2022-08-19T09:22:19;37.95;;;33.97;;
7693;SDS011;3889;48.162;11.510;2022-08-19T09:24:51;37.95;;;33.90;;
7693;SDS011;3889;48.162;11.510;2022-08-19T09:27:19;38.25;;;34.25;;
7693;SDS011;3889;48.162;11.510;2022-08-19T09:30:10;37.55;;;32.80;;
7693;SDS011;3889;48.162;11.510;2022-08-19T09:32:41;34.72;;;31.13;;
7693;SDS011;3889;48.162;11.510;2022-08-19T09:35:09;35.33;;;31.57;;
7693;SDS011;3889;48.162;11.510;2022-08-19T09:37:39;32.00;;;28.70;;
7693;SDS011;3889;48.162;11.510;2022-08-19T09:40:08;32.30;;;28.90;;
7693;SDS011;3889;48.162;11.510;2022-08-19T09:42:37;32.27;;;28.80;;
7693;SDS011;3889;48.162;11.510;2022-08-19T09:45:17;32.65;;;29.15;;
7693;SDS011;3889;48.162;11.510;2022-08-19T09:47:48;32.38;;;28.92;;
7693;SDS011;3889;48.162;11.510;2022-08-19T09:50:22;32.65;;;28.95;;
7693;SDS011;3889;48.162;11.510;2022-08-19T09:52:51;32.35;;;28.83;;
7693;SDS011;3889;48.162;11.510;2022-08-19T09:55:23;34.20;;;28.92;;
7693;SDS011;3889;48.162;11.510;2022-08-19T09:57:58;32.13;;;28.63;;
7693;SDS011;3889;48.162;11.510;2022-08-19T10:00:28;33.10;;;29.52;;
7693;SDS011;3889;48.162;11.510;2022-08-19T10:02:57;32.35;;;28.88;;
7693;SDS011;3889;48.162;11.510;2022-08-19T10:05:26;30.00;;;26.05;;
7693;SDS011;3889;48.162;11.510;2022-08-19T10:08:14;28.30;;;25.08;;
7693;SDS011;3889;48.162;11.510;2022-08-19T10:10:45;29.07;;;26.17;;
7693;SDS011;3889;48.162;11.510;2022-08-19T10:13:15;29.13;;;26.03;;
7693;SDS011;3889;48.162;11.510;2022-08-19T10:15:49;28.95;;;25.85;;
7693;SDS011;3889;48.162;11.510;2022-08-19T10:18:18;29.00;;;25.88;;
7693;SDS011;3889;48.162;11.510;2022-08-19T10:20:48;28.23;;;25.23;;
7693;SDS011;3889;48.162;11.510;2022-08-19T10:23:18;27.25;;;24.35;;
7693;SDS011;3889;48.162;11.510;2022-08-19T10:25:47;27.95;;;24.95;;
7693;SDS011;3889;48.162;11.510;2022-08-19T10:28:15;27.75;;;24.85;;
7693;SDS011;3889;48.162;11.510;2022-08-19T10:30:45;28.70;;;24.17;;
7693;SDS011;3889;48.162;11.510;2022-08-19T10:33:15;26.73;;;23.92;;
7693;SDS011;3889;48.162;11.510;2022-08-19T10:36:03;25.60;;;23.10;;
7693;SDS011;3889;48.162;11.510;2022-08-19T10:38:34;25.80;;;23.20;;
7693;SDS011;3889;48.162;11.510;2022-08-19T10:41:08;25.33;;;22.75;;
7693;SDS011;3889;48.162;11.510;2022-08-19T10:43:38;23.83;;;21.52;;
7693;SDS011;3889;48.162;11.510;2022-08-19T10:46:06;23.33;;;20.92;;
7693;SDS011;3889;48.162;11.510;2022-08-19T10:48:43;23.73;;;21.33;;
7693;SDS011;3889;48.162;11.510;2022-08-19T10:51:11;23.40;;;21.00;;
7693;SDS011;3889;48.162;11.510;2022-08-19T10:53:57;22.80;;;20.40;;
7693;SDS011;3889;48.162;11.510;2022-08-19T10:56:26;24.35;;;21.75;;
7693;SDS011;3889;48.162;11.510;2022-08-19T10:59:12;21.50;;;19.30;;
7693;SDS011;3889;48.162;11.510;2022-08-19T11:01:42;25.10;;;22.48;;
7693;SDS011;3889;48.162;11.510;2022-08-19T11:04:13;23.65;;;21.15;;
7693;SDS011;3889;48.162;11.510;2022-08-19T11:06:43;21.70;;;19.55;;
7693;SDS011;3889;48.162;11.510;2022-08-19T11:09:13;16.90;;;15.30;;
7693;SDS011;3889;48.162;11.510;2022-08-19T11:11:42;16.77;;;15.13;;
7693;SDS011;3889;48.162;11.510;2022-08-19T11:14:11;15.48;;;13.95;;
7693;SDS011;3889;48.162;11.510;2022-08-19T11:16:41;13.75;;;12.45;;
7693;SDS011;3889;48.162;11.510;2022-08-19T11:19:10;9.95;;;9.05;;
7693;SDS011;3889;48.162;11.510;2022-08-19T11:21:42;8.52;;;7.72;;
7693;SDS011;3889;48.162;11.510;2022-08-19T11:24:15;7.50;;;6.80;;
7693;SDS011;3889;48.162;11.510;2022-08-19T11:26:47;5.90;;;5.45;;
7693;SDS011;3889;48.162;11.510;2022-08-19T11:29:17;4.22;;;3.83;;
7693;SDS011;3889;48.162;11.510;2022-08-19T11:31:49;4.43;;;4.03;;
7693;SDS011;3889;48.162;11.510;2022-08-19T11:34:18;4.80;;;4.40;;
7693;SDS011;3889;48.162;11.510;2022-08-19T11:36:49;4.50;;;4.10;;
7693;SDS011;3889;48.162;11.510;2022-08-19T11:39:19;4.90;;;4.50;;
7693;SDS011;3889;48.162;11.510;2022-08-19T11:41:48;4.93;;;4.53;;
7693;SDS011;3889;48.162;11.510;2022-08-19T11:44:17;4.13;;;3.72;;
7693;SDS011;3889;48.162;11.510;2022-08-19T11:46:45;3.88;;;3.58;;
7693;SDS011;3889;48.162;11.510;2022-08-19T11:49:14;3.70;;;3.40;;
7693;SDS011;3889;48.162;11.510;2022-08-19T11:51:46;3.63;;;3.33;;
7693;SDS011;3889;48.162;11.510;2022-08-19T11:54:21;3.50;;;3.20;;
7693;SDS011;3889;48.162;11.510;2022-08-19T11:56:49;2.72;;;2.53;;
7693;SDS011;3889;48.162;11.510;2022-08-19T11:59:17;2.47;;;2.28;;
7693;SDS011;3889;48.162;11.510;2022-08-19T12:01:44;2.20;;;2.00;;
7693;SDS011;3889;48.162;11.510;2022-08-19T12:04:13;2.27;;;2.13;;
7693;SDS011;3889;48.162;11.510;2022-08-19T12:06:43;2.47;;;2.20;;
7693;SDS011;3889;48.162;11.510;2022-08-19T12:09:12;2.40;;;2.20;;
7693;SDS011;3889;48.162;11.510;2022-08-19T12:11:41;2.40;;;2.20;;
7693;SDS011;3889;48.162;11.510;2022-08-19T12:14:10;2.20;;;2.03;;
7693;SDS011;3889;48.162;11.510;2022-08-19T12:16:40;2.40;;;2.20;;
7693;SDS011;3889;48.162;11.510;2022-08-19T12:19:16;2.08;;;1.90;;
7693;SDS011;3889;48.162;11.510;2022-08-19T12:21:47;2.05;;;1.85;;
7693;SDS011;3889;48.162;11.510;2022-08-19T12:24:17;2.30;;;2.10;;
7693;SDS011;3889;48.162;11.510;2022-08-19T12:26:49;2.17;;;1.98;;
7693;SDS011;3889;48.162;11.510;2022-08-19T12:29:19;1.93;;;1.83;;
7693;SDS011;3889;48.162;11.510;2022-08-19T12:31:49;2.27;;;2.07;;
7693;SDS011;3889;48.162;11.510;2022-08-19T12:34:17;1.80;;;1.70;;
7693;SDS011;3889;48.162;11.510;2022-08-19T12:36:46;1.70;;;1.60;;
7693;SDS011;3889;48.162;11.510;2022-08-19T12:39:15;1.67;;;1.58;;
7693;SDS011;3889;48.162;11.510;2022-08-19T12:41:44;1.60;;;1.50;;
7693;SDS011;3889;48.162;11.510;2022-08-19T12:44:20;1.60;;;1.50;;
7693;SDS011;3889;48.162;11.510;2022-08-19T12:46:54;2.73;;;1.53;;
7693;SDS011;3889;48.162;11.510;2022-08-19T12:49:23;1.90;;;1.70;;
7693;SDS011;3889;48.162;11.510;2022-08-19T12:52:11;2.20;;;2.00;;
7693;SDS011;3889;48.162;11.510;2022-08-19T12:54:47;1.75;;;1.60;;
7693;SDS011;3889;48.162;11.510;2022-08-19T12:57:21;2.38;;;1.83;;
7693;SDS011;3889;48.162;11.510;2022-08-19T12:59:58;3.33;;;2.87;;
7693;SDS011;3889;48.162;11.510;2022-08-19T13:02:30;2.42;;;2.00;;
7693;SDS011;3889;48.162;11.510;2022-08-19T13:05:04;3.43;;;3.10;;
7693;SDS011;3889;48.162;11.510;2022-08-19T13:07:34;3.42;;;2.70;;
7693;SDS011;3889;48.162;11.510;2022-08-19T13:10:02;1.75;;;1.65;;
7693;SDS011;3889;48.162;11.510;2022-08-19T13:12:32;3.07;;;2.20;;
7693;SDS011;3889;48.162;11.510;2022-08-19T13:15:00;2.80;;;2.55;;
7693;SDS011;3889;48.162;11.510;2022-08-19T13:17:36;2.30;;;2.10;;
7693;SDS011;3889;48.162;11.510;2022-08-19T13:20:04;1.80;;;1.70;;
7693;SDS011;3889;48.162;11.510;2022-08-19T13:22:33;3.25;;;2.88;;
7693;SDS011;3889;48.162;11.510;2022-08-19T13:25:02;2.57;;;1.70;;
7693;SDS011;3889;48.162;11.510;2022-08-19T13:27:32;2.30;;;1.90;;
7693;SDS011;3889;48.162;11.510;2022-08-19T13:30:01;1.85;;;1.75;;
7693;SDS011;3889;48.162;11.510;2022-08-19T13:32:48;2.50;;;2.30;;
7693;SDS011;3889;48.162;11.510;2022-08-19T13:35:34;2.60;;;2.40;;
7693;SDS011;3889;48.162;11.510;2022-08-19T13:38:02;3.63;;;2.45;;
7693;SDS011;3889;48.162;11.510;2022-08-19T13:40:36;3.03;;;2.78;;
7693;SDS011;3889;48.162;11.510;2022-08-19T13:43:08;2.80;;;2.40;;
7693;SDS011;3889;48.162;11.510;2022-08-19T13:45:47;2.60;;;2.30;;
7693;SDS011;3889;48.162;11.510;2022-08-19T13:48:16;2.50;;;2.30;;
7693;SDS011;3889;48.162;11.510;2022-08-19T13:50:45;2.47;;;2.28;;
7693;SDS011;3889;48.162;11.510;2022-08-19T13:53:14;2.80;;;2.60;;
7693;SDS011;3889;48.162;11.510;2022-08-19T13:55:43;2.95;;;2.65;;
7693;SDS011;3889;48.162;11.510;2022-08-19T13:58:13;3.00;;;2.80;;
7693;SDS011;3889;48.162;11.510;2022-08-19T14:00:42;3.58;;;3.28;;
7693;SDS011;3889;48.162;11.510;2022-08-19T14:03:15;3.70;;;3.40;;
7693;SDS011;3889;48.162;11.510;2022-08-19T14:05:45;3.30;;;3.10;;
7693;SDS011;3889;48.162;11.510;2022-08-19T14:08:15;3.67;;;3.38;;
7693;SDS011;3889;48.162;11.510;2022-08-19T14:10:45;3.70;;;3.40;;
7693;SDS011;3889;48.162;11.510;2022-08-19T14:13:19;3.83;;;3.53;;
7693;SDS011;3889;48.162;11.510;2022-08-19T14:15:50;3.83;;;3.43;;
7693;SDS011;3889;48.162;11.510;2022-08-19T14:18:19;4.10;;;3.80;;
7693;SDS011;3889;48.162;11.510;2022-08-19T14:20:51;4.07;;;3.77;;
7693;SDS011;3889;48.162;11.510;2022-08-19T14:23:20;3.80;;;3.50;;
7693;SDS011;3889;48.162;11.510;2022-08-19T14:25:49;3.83;;;3.53;;
7693;SDS011;3889;48.162;11.510;2022-08-19T14:28:18;3.80;;;3.50;;
7693;SDS011;3889;48.162;11.510;2022-08-19T14:30:53;4.10;;;3.80;;
7693;SDS011;3889;48.162;11.510;2022-08-19T14:33:21;3.70;;;3.40;;
7693;SDS011;3889;48.162;11.510;2022-08-19T14:35:55;3.78;;;3.47;;
7693;SDS011;3889;48.162;11.510;2022-08-19T14:38:25;3.72;;;3.42;;
7693;SDS011;3889;48.162;11.510;2022-08-19T14:41:05;3.67;;;3.38;;
7693;SDS011;3889;48.162;11.510;2022-08-19T14:43:39;4.10;;;3.80;;
7693;SDS011;3889;48.162;11.510;2022-08-19T14:46:08;3.85;;;3.55;;
7693;SDS011;3889;48.162;11.510;2022-08-19T14:48:36;3.50;;;3.20;;
7693;SDS011;3889;48.162;11.510;2022-08-19T14:51:06;3.47;;;3.20;;
7693;SDS011;3889;48.162;11.510;2022-08-19T14:53:35;3.83;;;3.53;;
7693;SDS011;3889;48.162;11.510;2022-08-19T14:56:07;4.20;;;3.80;;
7693;SDS011;3889;48.162;11.510;2022-08-19T14:58:37;3.72;;;3.42;;
7693;SDS011;3889;48.162;11.510;2022-08-19T15:01:08;3.65;;;3.33;;
7693;SDS011;3889;48.162;11.510;2022-08-19T15:03:37;3.70;;;3.40;;
7693;SDS011;3889;48.162;11.510;2022-08-19T15:06:07;3.63;;;3.37;;
7693;SDS011;3889;48.162;11.510;2022-08-19T15:08:38;3.80;;;3.50;;
7693;SDS011;3889;48.162;11.510;2022-08-19T15:11:08;4.88;;;4.32;;